createdAt,value
2018-08-14T00:01:18.218Z,8.33
2018-08-14T00:03:47.149Z,7.53
2018-08-14T00:06:16.326Z,8.98
2018-08-14T00:08:45.416Z,9.40
2018-08-14T00:11:14.538Z,10.85
2018-08-14T00:13:43.750Z,8.10
2018-08-14T00:16:12.617Z,7.12
2018-08-14T00:18:41.529Z,7.08
2018-08-14T00:21:10.617Z,8.13
2018-08-14T00:23:39.552Z,8.38
2018-08-14T00:26:08.548Z,8.85
2018-08-14T00:28:37.588Z,8.25
2018-08-14T00:31:06.508Z,11.83
2018-08-14T00:33:35.430Z,9.30
2018-08-14T00:36:04.369Z,9.35
2018-08-14T00:38:33.237Z,9.13
2018-08-14T00:41:02.255Z,14.43
2018-08-14T00:43:31.237Z,9.23
2018-08-14T00:46:00.260Z,8.80
2018-08-14T00:48:29.197Z,11.53
2018-08-14T00:50:58.247Z,9.60
2018-08-14T00:53:27.234Z,10.80
2018-08-14T00:55:56.600Z,13.95
2018-08-14T00:58:25.438Z,12.05
2018-08-14T01:00:54.319Z,9.93
2018-08-14T01:03:23.330Z,12.93
2018-08-14T01:05:52.294Z,9.75
2018-08-14T01:08:21.161Z,10.08
2018-08-14T01:10:50.149Z,10.20
2018-08-14T01:13:19.100Z,10.23
2018-08-14T01:15:48.031Z,13.55
2018-08-14T01:18:16.977Z,12.40
2018-08-14T01:20:51.800Z,11.75
2018-08-14T01:23:20.809Z,9.68
2018-08-14T01:25:49.769Z,12.33
2018-08-14T01:28:18.650Z,9.63
2018-08-14T01:30:47.705Z,12.73
2018-08-14T01:33:16.789Z,11.00
2018-08-14T01:35:45.708Z,11.53
2018-08-14T01:38:14.663Z,12.13
2018-08-14T01:40:43.604Z,13.05
2018-08-14T01:43:12.439Z,12.50
2018-08-14T01:45:41.361Z,9.43
2018-08-14T01:48:10.422Z,10.28
2018-08-14T01:50:39.381Z,12.33
2018-08-14T01:53:08.427Z,11.30
2018-08-14T01:55:37.308Z,12.55
2018-08-14T01:58:06.295Z,11.95
2018-08-14T02:00:35.397Z,14.58
2018-08-14T02:03:04.505Z,14.80
2018-08-14T02:05:33.386Z,11.08
2018-08-14T02:08:02.377Z,13.05
2018-08-14T02:10:31.308Z,15.10
2018-08-14T02:13:00.264Z,14.28
2018-08-14T02:15:29.278Z,15.50
2018-08-14T02:17:58.161Z,13.30
2018-08-14T02:20:27.140Z,14.18
2018-08-14T02:22:56.547Z,13.08
2018-08-14T02:25:25.496Z,12.80
2018-08-14T02:27:54.384Z,14.18
2018-08-14T02:30:23.290Z,16.62
2018-08-14T02:32:52.317Z,13.85
2018-08-14T02:35:21.177Z,15.13
2018-08-14T02:37:50.193Z,12.55
2018-08-14T02:40:21.873Z,13.98
2018-08-14T02:42:51.599Z,15.65
2018-08-14T02:45:20.851Z,13.85
2018-08-14T02:47:49.806Z,13.08
2018-08-14T02:50:18.840Z,16.65
2018-08-14T02:52:47.809Z,14.10
2018-08-14T02:55:19.839Z,15.75
2018-08-14T02:57:48.753Z,17.77
2018-08-14T03:00:25.719Z,14.00
2018-08-14T03:02:54.757Z,19.27
2018-08-14T03:05:23.771Z,13.20
2018-08-14T03:07:52.861Z,19.90
2018-08-14T03:10:21.891Z,11.93
2018-08-14T03:12:50.885Z,14.38
2018-08-14T03:15:21.270Z,16.32
2018-08-14T03:17:52.887Z,15.23
2018-08-14T03:20:24.355Z,15.03
2018-08-14T03:22:53.634Z,13.60
2018-08-14T03:25:22.558Z,16.55
2018-08-14T03:27:51.548Z,19.98
2018-08-14T03:30:20.497Z,16.37
2018-08-14T03:32:49.392Z,15.38
2018-08-14T03:35:18.440Z,13.98
2018-08-14T03:37:47.294Z,12.10
2018-08-14T03:40:17.890Z,11.28
2018-08-14T03:42:47.676Z,13.30
2018-08-14T03:45:16.682Z,15.25
2018-08-14T03:47:46.017Z,16.42
2018-08-14T03:50:15.335Z,12.20
2018-08-14T03:52:44.526Z,12.98
2018-08-14T03:55:17.845Z,16.32
2018-08-14T03:57:46.722Z,17.07
2018-08-14T04:00:17.307Z,12.07
2018-08-14T04:02:46.394Z,13.80
2018-08-14T04:05:15.388Z,15.10
2018-08-14T04:07:44.929Z,17.60
2018-08-14T04:10:14.528Z,14.10
2018-08-14T04:12:43.500Z,17.23
2018-08-14T04:15:13.684Z,17.57
2018-08-14T04:17:42.696Z,14.70
2018-08-14T04:20:12.811Z,16.25
2018-08-14T04:22:42.677Z,19.85
2018-08-14T04:25:12.402Z,16.45
2018-08-14T04:27:41.368Z,16.42
2018-08-14T04:30:12.256Z,16.07
2018-08-14T04:32:41.910Z,14.35
2018-08-14T04:35:10.855Z,14.00
2018-08-14T04:37:39.863Z,17.45
2018-08-14T04:40:09.815Z,17.62
2018-08-14T04:42:38.701Z,16.10
2018-08-14T04:45:07.773Z,18.65
2018-08-14T04:47:37.002Z,15.00
2018-08-14T04:50:07.803Z,16.60
2018-08-14T04:52:36.751Z,17.52
2018-08-14T04:55:06.389Z,17.02
2018-08-14T04:57:35.411Z,12.18
2018-08-14T05:00:06.437Z,16.27
2018-08-14T05:02:35.346Z,16.70
2018-08-14T05:05:05.206Z,16.25
2018-08-14T05:07:34.269Z,17.30
2018-08-14T05:10:03.177Z,13.98
2018-08-14T05:12:32.104Z,14.90
2018-08-14T05:15:01.050Z,14.30
2018-08-14T05:17:30.206Z,16.60
2018-08-14T05:19:59.198Z,12.78
2018-08-14T05:22:28.246Z,15.38
2018-08-14T05:24:57.126Z,12.93
2018-08-14T05:27:26.132Z,17.35
2018-08-14T05:29:55.000Z,17.27
2018-08-14T05:32:23.914Z,14.18
2018-08-14T05:34:52.958Z,16.02
2018-08-14T05:37:22.301Z,12.58
2018-08-14T05:39:51.234Z,11.48
2018-08-14T05:42:20.314Z,12.33
2018-08-14T05:44:49.182Z,13.75
2018-08-14T05:47:18.164Z,12.50
2018-08-14T05:49:47.211Z,12.28
2018-08-14T05:52:16.159Z,14.05
2018-08-14T05:54:45.035Z,12.98
2018-08-14T05:57:14.001Z,12.58
2018-08-14T05:59:43.040Z,11.18
2018-08-14T06:02:12.067Z,12.90
2018-08-14T06:04:41.002Z,10.93
2018-08-14T06:07:09.930Z,10.72
2018-08-14T06:09:38.925Z,8.80
2018-08-14T06:12:07.977Z,10.05
2018-08-14T06:14:36.876Z,8.30
2018-08-14T06:17:05.979Z,9.50
2018-08-14T06:19:34.850Z,9.78
2018-08-14T06:22:03.809Z,8.48
2018-08-14T06:24:32.753Z,10.23
2018-08-14T06:27:01.682Z,10.48
2018-08-14T06:29:30.566Z,11.33
2018-08-14T06:31:59.830Z,15.30
2018-08-14T06:34:28.717Z,13.28
2018-08-14T06:36:57.612Z,11.45
2018-08-14T06:39:26.701Z,13.68
2018-08-14T06:41:55.607Z,8.93
2018-08-14T06:44:24.656Z,14.43
2018-08-14T06:46:53.559Z,11.75
2018-08-14T06:49:22.435Z,12.23
2018-08-14T06:51:51.429Z,11.48
2018-08-14T06:54:20.344Z,15.28
2018-08-14T06:56:49.339Z,13.35
2018-08-14T06:59:18.278Z,13.93
2018-08-14T07:01:47.206Z,13.83
2018-08-14T07:04:16.218Z,12.53
2018-08-14T07:06:45.273Z,16.15
2018-08-14T07:09:14.196Z,13.35
2018-08-14T07:11:43.050Z,17.35
2018-08-14T07:14:12.138Z,12.15
2018-08-14T07:16:41.103Z,13.10
2018-08-14T07:19:11.043Z,13.65
2018-08-14T07:21:39.935Z,10.93
2018-08-14T07:24:08.864Z,12.33
2018-08-14T07:26:37.809Z,13.85
2018-08-14T07:29:06.689Z,12.13
2018-08-14T07:31:35.616Z,12.50
2018-08-14T07:34:04.518Z,11.95
2018-08-14T07:36:33.490Z,13.72
2018-08-14T07:39:02.390Z,14.70
2018-08-14T07:41:31.455Z,12.90
2018-08-14T07:44:00.354Z,11.90
2018-08-14T07:46:29.243Z,11.25
2018-08-14T07:48:58.324Z,10.03
2018-08-14T07:51:27.325Z,8.80
2018-08-14T07:53:56.255Z,8.48
2018-08-14T07:56:25.189Z,9.78
2018-08-14T07:58:54.468Z,10.28
2018-08-14T08:01:23.397Z,11.78
2018-08-14T08:03:52.489Z,9.78
2018-08-14T08:06:21.399Z,11.35
2018-08-14T08:08:50.328Z,10.60
2018-08-14T08:11:19.271Z,11.55
2018-08-14T08:13:48.171Z,10.05
2018-08-14T08:16:17.068Z,11.25
2018-08-14T08:18:46.022Z,7.47
2018-08-14T08:21:15.045Z,9.78
2018-08-14T08:23:43.937Z,7.58
2018-08-14T08:26:12.925Z,11.20
2018-08-14T08:28:41.884Z,8.63
2018-08-14T08:31:10.805Z,11.20
2018-08-14T08:33:39.696Z,10.43
2018-08-14T08:36:08.700Z,11.10
2018-08-14T08:38:37.716Z,11.22
2018-08-14T08:41:06.597Z,6.85
2018-08-14T08:43:35.481Z,9.10
2018-08-14T08:46:04.474Z,8.20
2018-08-14T08:48:33.357Z,8.00
2018-08-14T08:51:02.318Z,5.97
2018-08-14T08:53:31.242Z,7.55
2018-08-14T08:56:00.271Z,8.23
2018-08-14T08:58:29.269Z,11.45
2018-08-14T09:00:58.153Z,10.40
2018-08-14T09:03:27.155Z,9.98
2018-08-14T09:05:55.964Z,7.87
2018-08-14T09:08:24.886Z,6.40
2018-08-14T09:10:53.831Z,7.25
2018-08-14T09:13:22.829Z,7.92
2018-08-14T09:15:51.834Z,9.35
2018-08-14T09:18:20.728Z,6.17
2018-08-14T09:20:49.732Z,7.28
2018-08-14T09:23:18.691Z,6.15
2018-08-14T09:25:48.052Z,8.10
2018-08-14T09:28:16.933Z,6.92
2018-08-14T09:30:45.866Z,8.00
2018-08-14T09:33:15.701Z,7.33
2018-08-14T09:35:44.773Z,7.85
2018-08-14T09:38:13.893Z,6.03
2018-08-14T09:40:46.370Z,5.67
2018-08-14T09:43:15.402Z,4.55
2018-08-14T09:45:45.008Z,3.95
2018-08-14T09:48:14.127Z,3.87
2018-08-14T09:50:43.094Z,3.90
2018-08-14T09:53:12.037Z,3.17
2018-08-14T09:55:40.910Z,2.60
2018-08-14T09:58:11.146Z,3.75
2018-08-14T10:00:45.442Z,7.90
2018-08-14T10:03:21.381Z,3.22
2018-08-14T10:06:54.017Z,5.92
2018-08-14T10:09:24.341Z,4.20
2018-08-14T10:11:53.248Z,4.15
2018-08-14T10:14:26.398Z,2.45
2018-08-14T10:16:55.346Z,2.70
2018-08-14T10:19:24.264Z,2.67
2018-08-14T10:21:53.299Z,1.27
2018-08-14T10:24:22.275Z,1.80
2018-08-14T10:26:51.329Z,2.98
2018-08-14T10:29:20.273Z,3.15
2018-08-14T10:31:49.147Z,1.95
2018-08-14T10:34:18.154Z,1.62
2018-08-14T10:36:47.237Z,1.52
2018-08-14T10:39:16.143Z,2.22
2018-08-14T10:41:45.088Z,2.10
2018-08-14T10:44:14.001Z,0.93
2018-08-14T10:46:42.988Z,1.05
2018-08-14T10:49:12.053Z,1.20
2018-08-14T10:51:40.899Z,1.67
2018-08-14T10:54:09.797Z,0.90
2018-08-14T10:56:38.796Z,1.00
2018-08-14T10:59:07.812Z,1.65
2018-08-14T11:01:36.752Z,0.90
2018-08-14T11:04:05.854Z,2.05
2018-08-14T11:06:34.827Z,1.80
2018-08-14T11:09:04.779Z,2.75
2018-08-14T11:11:37.882Z,2.35
2018-08-14T11:14:06.769Z,1.62
2018-08-14T11:16:35.705Z,3.62
2018-08-14T11:19:04.879Z,6.72
2018-08-14T11:21:34.444Z,1.57
2018-08-14T11:24:03.388Z,1.42
2018-08-14T11:26:32.413Z,1.22
2018-08-14T11:29:01.307Z,1.55
2018-08-14T11:31:34.483Z,1.85
2018-08-14T11:34:03.385Z,2.00
2018-08-14T11:36:32.447Z,1.72
2018-08-14T11:39:02.600Z,2.10
2018-08-14T11:41:31.481Z,2.00
2018-08-14T11:44:00.291Z,1.85
2018-08-14T11:46:29.524Z,2.30
2018-08-14T11:48:59.396Z,8.88
2018-08-14T11:51:28.293Z,1.75
2018-08-14T11:53:57.635Z,1.50
2018-08-14T11:56:26.538Z,1.40
2018-08-14T11:58:55.575Z,2.87
2018-08-14T12:01:24.590Z,1.55
2018-08-14T12:03:53.775Z,2.87
2018-08-14T12:06:22.635Z,1.77
2018-08-14T12:08:51.641Z,1.20
2018-08-14T12:11:20.543Z,1.00
2018-08-14T12:13:49.411Z,1.07
2018-08-14T12:16:18.602Z,2.02
2018-08-14T12:18:47.467Z,0.93
2018-08-14T12:21:16.518Z,2.05
2018-08-14T12:23:45.485Z,1.12
2018-08-14T12:26:14.340Z,1.65
2018-08-14T12:28:43.204Z,1.17
2018-08-14T12:31:12.189Z,2.22
2018-08-14T12:33:41.031Z,6.62
2018-08-14T12:36:09.945Z,2.52
2018-08-14T12:38:38.867Z,1.95
2018-08-14T12:41:09.079Z,2.12
2018-08-14T12:43:37.975Z,2.10
2018-08-14T12:46:07.083Z,4.00
2018-08-14T12:48:36.046Z,2.27
2018-08-14T12:51:04.929Z,2.17
2018-08-14T12:53:33.877Z,2.08
2018-08-14T12:56:02.815Z,1.30
2018-08-14T12:58:31.769Z,2.55
2018-08-14T13:01:00.671Z,2.27
2018-08-14T13:03:29.635Z,1.40
2018-08-14T13:05:58.551Z,1.65
2018-08-14T13:08:27.452Z,1.72
2018-08-14T13:10:57.630Z,3.47
2018-08-14T13:13:26.831Z,1.85
2018-08-14T13:15:55.791Z,1.40
2018-08-14T13:18:24.725Z,1.95
2018-08-14T13:20:53.602Z,2.22
2018-08-14T13:23:22.555Z,3.17
2018-08-14T13:25:51.430Z,2.02
2018-08-14T13:28:20.329Z,1.87
2018-08-14T13:30:49.281Z,1.90
2018-08-14T13:33:18.632Z,2.55
2018-08-14T13:35:47.620Z,2.72
2018-08-14T13:38:16.555Z,3.72
2018-08-14T13:40:45.440Z,1.90
2018-08-14T13:43:14.740Z,1.80
2018-08-14T13:45:43.894Z,1.90
2018-08-14T13:48:12.776Z,1.32
2018-08-14T13:50:41.828Z,2.22
2018-08-14T13:53:10.718Z,5.83
2018-08-14T13:55:39.636Z,5.83
2018-08-14T13:58:08.621Z,4.28
2018-08-14T14:00:37.602Z,3.35
2018-08-14T14:03:06.478Z,3.60
2018-08-14T14:05:35.437Z,4.20
2018-08-14T14:08:04.452Z,2.72
2018-08-14T14:10:33.448Z,3.20
2018-08-14T14:13:02.458Z,3.47
2018-08-14T14:15:31.420Z,2.27
2018-08-14T14:18:00.365Z,1.72
2018-08-14T14:20:30.545Z,3.60
2018-08-14T14:22:59.581Z,3.35
2018-08-14T14:25:28.697Z,4.00
2018-08-14T14:27:57.738Z,3.55
2018-08-14T14:30:26.956Z,1.75
2018-08-14T14:32:55.826Z,3.47
2018-08-14T14:35:24.821Z,2.02
2018-08-14T14:37:53.733Z,2.25
2018-08-14T14:40:27.613Z,2.70
2018-08-14T14:42:57.771Z,1.65
2018-08-14T14:45:26.742Z,2.05
2018-08-14T14:47:55.858Z,2.33
2018-08-14T14:50:24.850Z,2.87
2018-08-14T14:52:53.757Z,3.52
2018-08-14T14:55:23.483Z,1.87
2018-08-14T14:57:52.693Z,1.80
2018-08-14T15:00:23.877Z,1.77
2018-08-14T15:02:54.456Z,1.62
2018-08-14T15:05:23.480Z,3.83
2018-08-14T15:07:52.629Z,3.50
2018-08-14T15:10:41.361Z,5.75
2018-08-14T15:13:10.631Z,5.08
2018-08-14T15:15:39.668Z,4.60
2018-08-14T15:18:08.641Z,5.50
2018-08-14T15:20:37.566Z,3.83
2018-08-14T15:23:06.463Z,2.65
2018-08-14T15:25:35.520Z,2.67
2018-08-14T15:29:20.877Z,3.22
2018-08-14T15:31:58.058Z,4.35
2018-08-14T15:34:28.917Z,2.80
2018-08-14T15:37:01.410Z,4.45
2018-08-14T15:39:30.479Z,3.12
2018-08-14T15:42:00.387Z,2.50
2018-08-14T15:44:45.133Z,3.02
2018-08-14T15:47:14.018Z,3.65
2018-08-14T15:49:43.104Z,4.60
2018-08-14T15:52:11.973Z,3.98
2018-08-14T15:54:40.854Z,2.05
2018-08-14T15:57:09.799Z,2.80
2018-08-14T15:59:38.768Z,3.22
2018-08-14T16:02:07.745Z,1.95
2018-08-14T16:04:36.679Z,3.50
2018-08-14T16:07:05.610Z,2.52
2018-08-14T16:09:34.631Z,1.77
2018-08-14T16:12:03.880Z,1.52
2018-08-14T16:14:32.785Z,1.22
2018-08-14T16:17:01.676Z,1.02
2018-08-14T16:19:30.709Z,2.85
2018-08-14T16:21:59.653Z,1.80
2018-08-14T16:24:29.679Z,1.42
2018-08-14T16:26:58.779Z,0.93
2018-08-14T16:29:27.678Z,1.02
2018-08-14T16:31:56.667Z,0.88
2018-08-14T16:34:25.589Z,1.00
2018-08-14T16:36:54.465Z,0.40
2018-08-14T16:39:23.438Z,0.82
2018-08-14T16:41:52.387Z,0.82
2018-08-14T16:44:21.273Z,2.08
2018-08-14T16:46:50.192Z,0.70
2018-08-14T16:49:19.346Z,0.57
2018-08-14T16:51:48.222Z,1.62
2018-08-14T16:54:17.105Z,1.70
2018-08-14T16:56:46.033Z,0.95
2018-08-14T16:59:14.883Z,0.60
2018-08-14T17:01:43.872Z,0.70
2018-08-14T17:04:12.759Z,20.10
2018-08-14T17:06:41.632Z,0.75
2018-08-14T17:09:10.532Z,2.37
2018-08-14T17:11:39.458Z,1.42
2018-08-14T17:14:08.960Z,1.75
2018-08-14T17:16:37.896Z,1.07
2018-08-14T17:19:07.025Z,0.50
2018-08-14T17:21:34.879Z,2.08
2018-08-14T17:24:03.856Z,1.02
2018-08-14T17:26:32.862Z,1.10
2018-08-14T17:29:01.899Z,1.75
2018-08-14T17:31:30.877Z,0.82
2018-08-14T17:33:59.847Z,0.68
2018-08-14T17:36:28.832Z,2.00
2018-08-14T17:38:57.867Z,0.35
2018-08-14T17:41:26.808Z,1.75
2018-08-14T17:43:55.714Z,1.10
2018-08-14T17:46:24.703Z,1.05
2018-08-14T17:48:53.791Z,0.50
2018-08-14T17:51:22.736Z,0.45
2018-08-14T17:53:51.677Z,0.70
2018-08-14T17:56:20.795Z,0.78
2018-08-14T17:58:49.739Z,0.65
2018-08-14T18:01:18.725Z,0.40
2018-08-14T18:03:47.710Z,2.55
2018-08-14T18:06:16.638Z,0.75
2018-08-14T18:08:45.667Z,2.37
2018-08-14T18:11:14.781Z,1.22
2018-08-14T18:13:43.721Z,1.25
2018-08-14T18:16:12.681Z,0.20
2018-08-14T18:18:41.599Z,0.75
2018-08-14T18:21:10.513Z,0.70
2018-08-14T18:23:40.357Z,0.42
2018-08-14T18:26:09.252Z,1.05
2018-08-14T18:28:38.157Z,0.30
2018-08-14T18:31:07.290Z,0.30
2018-08-14T18:33:36.162Z,0.37
2018-08-14T18:36:05.053Z,0.65
2018-08-14T18:38:34.057Z,1.22
2018-08-14T18:41:03.022Z,0.45
2018-08-14T18:43:31.820Z,0.30
2018-08-14T18:46:01.139Z,0.95
2018-08-14T18:48:30.167Z,0.62
2018-08-14T18:50:59.085Z,0.50
2018-08-14T18:53:28.036Z,1.05
2018-08-14T18:55:56.916Z,12.58
2018-08-14T18:58:25.899Z,5.20
2018-08-14T19:00:54.888Z,8.45
2018-08-14T19:03:23.773Z,1.55
2018-08-14T19:05:52.623Z,0.85
2018-08-14T19:08:21.757Z,2.00
2018-08-14T19:10:50.656Z,1.80
2018-08-14T19:13:19.683Z,1.35
2018-08-14T19:15:48.789Z,0.95
2018-08-14T19:18:17.637Z,0.50
2018-08-14T19:20:46.515Z,5.80
2018-08-14T19:23:15.567Z,2.75
2018-08-14T19:25:44.451Z,2.35
2018-08-14T19:28:13.351Z,1.70
2018-08-14T19:30:42.465Z,1.17
2018-08-14T19:33:11.631Z,3.12
2018-08-14T19:35:40.872Z,2.62
2018-08-14T19:38:09.859Z,1.82
2018-08-14T19:40:38.965Z,1.45
2018-08-14T19:43:08.024Z,1.62
2018-08-14T19:45:36.940Z,5.50
2018-08-14T19:48:05.882Z,1.40
2018-08-14T19:50:34.810Z,1.25
2018-08-14T19:53:03.786Z,4.12
2018-08-14T19:55:32.705Z,6.40
2018-08-14T19:58:01.772Z,7.22
2018-08-14T20:00:30.846Z,1.82
2018-08-14T20:02:59.802Z,1.07
2018-08-14T20:05:28.703Z,4.25
2018-08-14T20:07:57.779Z,1.57
2018-08-14T20:10:26.830Z,2.92
2018-08-14T20:12:56.635Z,4.20
2018-08-14T20:15:31.007Z,1.55
2018-08-14T20:18:00.000Z,1.57
2018-08-14T20:20:28.882Z,1.10
2018-08-14T20:22:57.958Z,1.50
2018-08-14T20:25:26.842Z,2.25
2018-08-14T20:27:55.798Z,1.20
2018-08-14T20:30:24.950Z,1.67
2018-08-14T20:32:53.812Z,3.75
2018-08-14T20:35:22.771Z,3.47
2018-08-14T20:37:51.735Z,1.47
2018-08-14T20:40:21.975Z,2.75
2018-08-14T20:42:50.958Z,3.92
2018-08-14T20:45:19.871Z,2.02
2018-08-14T20:47:48.743Z,2.87
2018-08-14T20:50:18.827Z,1.70
2018-08-14T20:52:48.218Z,2.12
2018-08-14T20:55:19.693Z,4.03
2018-08-14T20:57:48.572Z,2.20
2018-08-14T21:00:24.025Z,1.40
2018-08-14T21:02:53.658Z,0.93
2018-08-14T21:05:23.800Z,2.17
2018-08-14T21:07:53.070Z,1.32
2018-08-14T21:10:21.985Z,1.25
2018-08-14T21:12:50.973Z,1.65
2018-08-14T21:15:25.109Z,0.78
2018-08-14T21:17:54.140Z,3.95
2018-08-14T21:20:23.017Z,1.72
2018-08-14T21:22:51.913Z,4.10
2018-08-14T21:25:21.087Z,1.55
2018-08-14T21:27:49.974Z,1.67
2018-08-14T21:30:19.049Z,2.92
2018-08-14T21:32:48.635Z,5.67
2018-08-14T21:35:18.258Z,2.87
2018-08-14T21:37:47.283Z,1.80
2018-08-14T21:40:17.781Z,1.05
2018-08-14T21:42:47.841Z,1.47
2018-08-14T21:45:17.989Z,2.45
2018-08-14T21:47:47.033Z,6.28
2018-08-14T21:50:16.549Z,2.22
2018-08-14T21:52:45.486Z,7.65
2018-08-14T21:55:15.065Z,1.80
2018-08-14T21:57:44.785Z,2.27
2018-08-14T22:01:21.341Z,2.47
2018-08-14T22:03:50.459Z,3.35
2018-08-14T22:06:19.332Z,1.22
2018-08-14T22:08:48.268Z,7.17
2018-08-14T22:11:17.192Z,2.90
2018-08-14T22:13:46.104Z,5.03
2018-08-14T22:16:15.042Z,0.72
2018-08-14T22:18:44.170Z,5.78
2018-08-14T22:21:13.184Z,2.35
2018-08-14T22:23:42.573Z,2.33
2018-08-14T22:26:11.612Z,7.75
2018-08-14T22:28:40.493Z,3.98
2018-08-14T22:31:10.840Z,1.20
2018-08-14T22:33:39.881Z,3.92
2018-08-14T22:36:08.759Z,2.92
2018-08-14T22:38:37.813Z,5.87
2018-08-14T22:41:06.702Z,1.05
2018-08-14T22:43:36.367Z,2.65
2018-08-14T22:46:05.326Z,1.57
2018-08-14T22:48:34.306Z,0.80
2018-08-14T22:51:03.219Z,1.05
2018-08-14T22:53:32.159Z,2.77
2018-08-14T22:56:01.221Z,2.37
2018-08-14T22:58:30.207Z,3.83
2018-08-14T23:00:59.147Z,1.10
2018-08-14T23:03:28.067Z,7.22
2018-08-14T23:05:56.986Z,2.05
2018-08-14T23:08:26.035Z,5.70
2018-08-14T23:10:54.995Z,1.45
2018-08-14T23:13:23.940Z,2.27
2018-08-14T23:15:58.243Z,2.92
2018-08-14T23:18:27.190Z,2.70
2018-08-14T23:20:56.147Z,2.37
2018-08-14T23:23:26.483Z,2.62
2018-08-14T23:25:59.335Z,3.80
2018-08-14T23:28:41.132Z,1.75
2018-08-14T23:31:11.136Z,3.72
2018-08-14T23:33:40.274Z,3.67
2018-08-14T23:36:09.178Z,1.50
2018-08-14T23:38:38.084Z,2.00
2018-08-14T23:41:09.738Z,3.02
2018-08-14T23:43:39.952Z,1.45
2018-08-14T23:46:08.988Z,1.57
2018-08-14T23:48:38.003Z,4.12
2018-08-14T23:51:06.915Z,1.98
2018-08-14T23:53:35.896Z,3.98
2018-08-14T23:56:04.861Z,8.30
2018-08-14T23:58:33.925Z,4.85
